Time;durP1;ratioP1;P1;durP2;ratioP2;P2;SDS_P1;SDS_P2;PMS_P1;PMS_P2;Temp;Humidity;BMP_temperature;BMP_pressure;BME280_temperature;BME280_humidity;BME280_pressure;Samples;Min_cycle;Max_cycle;Signal;HPM_P1;HPM_P2
2024/04/05 00:01:51;;;;;;;1.67;0.90;;;;;;;10.86;100.00;100592.66;4988224;28;20218;-71
2024/04/05 00:04:18;;;;;;;2.63;0.90;;;;;;;10.88;100.00;100601.06;5003406;28;20195;-71
2024/04/05 00:06:43;;;;;;;6.20;1.00;;;;;;;10.92;100.00;100601.94;5004059;28;20518;-71
2024/04/05 00:09:09;;;;;;;1.53;1.07;;;;;;;10.94;100.00;100603.16;5005416;28;20410;-71
2024/04/05 00:11:35;;;;;;;0.93;0.80;;;;;;;10.98;100.00;100603.28;5000146;28;20215;-71
2024/04/05 00:14:02;;;;;;;1.70;1.00;;;;;;;11.00;100.00;100611.63;5003612;28;20241;-71
2024/04/05 00:16:28;;;;;;;1.97;0.90;;;;;;;11.03;100.00;100611.75;5002655;28;20648;-71
2024/04/05 00:18:55;;;;;;;1.57;0.87;;;;;;;11.04;100.00;100623.09;5002978;28;20192;-71
2024/04/05 00:21:20;;;;;;;0.83;0.83;;;;;;;11.06;100.00;100616.41;5004869;28;20215;-71
2024/04/05 00:23:49;;;;;;;0.93;0.83;;;;;;;11.09;100.00;100613.13;5003589;28;20184;-71
2024/04/05 00:26:15;;;;;;;1.33;0.80;;;;;;;11.10;100.00;100612.00;4986562;28;20228;-71
2024/04/05 00:28:41;;;;;;;1.73;1.00;;;;;;;11.12;100.00;100624.91;5004398;28;20199;-71
2024/04/05 00:31:08;;;;;;;3.93;1.00;;;;;;;11.13;100.00;100619.25;5001094;28;20219;-71
2024/04/05 00:33:35;;;;;;;2.93;1.10;;;;;;;11.14;100.00;100631.38;5005145;28;20343;-71
2024/04/05 00:36:02;;;;;;;1.10;0.90;;;;;;;11.15;100.00;100626.88;5007565;28;20298;-71
2024/04/05 00:38:29;;;;;;;2.60;1.00;;;;;;;11.17;100.00;100625.44;5005750;28;20215;-71
2024/04/05 00:40:55;;;;;;;2.40;0.90;;;;;;;11.18;100.00;100615.66;5007030;28;20202;-71
2024/04/05 00:43:22;;;;;;;3.80;0.77;;;;;;;11.19;100.00;100622.47;5002127;28;20275;-71
2024/04/05 00:45:49;;;;;;;3.47;1.00;;;;;;;11.18;100.00;100623.59;5043693;23;20237;-71
2024/04/05 00:48:19;;;;;;;1.83;0.93;;;;;;;11.18;100.00;100626.22;5042537;28;20206;-71
2024/04/05 00:50:46;;;;;;;3.30;1.10;;;;;;;11.19;100.00;100623.25;5048116;28;20565;-72
2024/04/05 00:53:19;;;;;;;1.37;0.87;;;;;;;11.21;100.00;100622.91;5029006;28;20284;-72
2024/04/05 00:55:45;;;;;;;2.47;1.07;;;;;;;11.22;100.00;100621.81;5049648;28;20485;-72
2024/04/05 00:58:12;;;;;;;1.80;0.83;;;;;;;11.22;100.00;100621.81;5035982;28;20214;-71
2024/04/05 01:00:38;;;;;;;1.97;0.90;;;;;;;11.22;100.00;100630.53;5036376;28;20293;-72
2024/04/05 01:03:05;;;;;;;1.60;0.90;;;;;;;11.23;100.00;100618.84;5051812;28;20266;-72
2024/04/05 01:05:32;;;;;;;1.10;0.93;;;;;;;11.23;100.00;100626.03;5036170;28;20268;-71
2024/04/05 01:07:59;;;;;;;1.07;0.90;;;;;;;11.23;100.00;100623.38;5052182;28;20197;-71
2024/04/05 01:10:25;;;;;;;0.77;0.70;;;;;;;11.24;100.00;100630.97;5051336;28;20203;-72
2024/04/05 01:12:59;;;;;;;1.30;0.83;;;;;;;11.22;100.00;100625.25;5032205;28;20842;-72
2024/04/05 01:15:24;;;;;;;1.80;1.10;;;;;;;11.23;100.00;100621.50;5049164;28;20215;-71
2024/04/05 01:17:51;;;;;;;2.03;1.07;;;;;;;11.22;100.00;100624.44;5051530;28;20543;-72
2024/04/05 01:20:18;;;;;;;2.30;1.07;;;;;;;11.21;100.00;100628.19;5057444;28;20194;-72
2024/04/05 01:22:52;;;;;;;1.70;0.90;;;;;;;11.18;100.00;100626.97;5051915;28;20241;-72
2024/04/05 01:25:19;;;;;;;2.00;0.70;;;;;;;11.17;100.00;100633.38;5053038;28;20706;-72
2024/04/05 01:27:45;;;;;;;1.00;0.80;;;;;;;11.16;100.00;100628.41;5050632;28;20206;-71
2024/04/05 01:30:11;;;;;;;0.80;0.80;;;;;;;11.12;100.00;100632.84;5029711;28;20839;-72
2024/04/05 01:32:38;;;;;;;3.50;1.23;;;;;;;11.11;100.00;100641.84;5048836;28;20198;-70
2024/04/05 01:35:04;;;;;;;2.77;0.87;;;;;;;11.09;100.00;100628.19;5047810;28;20227;-71
2024/04/05 01:37:30;;;;;;;1.57;0.83;;;;;;;11.07;100.00;100640.97;5048477;28;20557;-72
2024/04/05 01:39:56;;;;;;;2.93;0.90;;;;;;;11.07;100.00;100638.31;5050692;28;20578;-72
2024/04/05 01:42:23;;;;;;;1.83;0.80;;;;;;;11.04;100.00;100638.97;5045986;28;20199;-72
2024/04/05 01:44:49;;;;;;;2.37;1.00;;;;;;;11.04;100.00;100636.31;5048282;28;20529;-72
2024/04/05 01:47:15;;;;;;;1.37;0.90;;;;;;;11.03;100.00;100648.00;5036515;28;20665;-72
2024/04/05 01:49:41;;;;;;;2.43;1.27;;;;;;;11.00;100.00;100640.72;5052112;28;20246;-72
2024/04/05 01:52:07;;;;;;;3.30;0.90;;;;;;;10.96;100.00;100645.88;5051830;28;20240;-71
2024/04/05 01:54:32;;;;;;;1.27;1.17;;;;;;;10.96;100.00;100647.72;5066217;28;20318;-71
2024/04/05 01:56:59;;;;;;;2.93;1.07;;;;;;;10.89;100.00;100648.28;5074063;28;20242;-71
2024/04/05 01:59:25;;;;;;;3.83;1.00;;;;;;;10.87;100.00;100641.78;5074684;28;20283;-72
2024/04/05 02:01:52;;;;;;;2.53;1.03;;;;;;;10.85;100.00;100650.03;5062529;28;20205;-71
2024/04/05 02:04:17;;;;;;;2.53;1.20;;;;;;;10.84;100.00;100642.41;5069103;28;20194;-72
2024/04/05 02:06:44;;;;;;;2.10;1.10;;;;;;;10.83;100.00;100643.53;5069860;28;20221;-72
2024/04/05 02:09:09;;;;;;;2.50;1.20;;;;;;;10.84;100.00;100645.84;5063574;28;20287;-72
2024/04/05 02:11:36;;;;;;;2.00;1.00;;;;;;;10.85;100.00;100644.75;5049057;28;20293;-72
2024/04/05 02:14:02;;;;;;;1.83;1.13;;;;;;;10.86;100.00;100651.56;5049872;28;20232;-72
2024/04/05 02:16:30;;;;;;;2.47;1.30;;;;;;;10.89;100.00;100652.78;5050157;28;20296;-72
2024/04/05 02:18:55;;;;;;;2.83;1.30;;;;;;;10.90;100.00;100652.47;5030252;28;20202;-72
2024/04/05 02:21:23;;;;;;;2.27;1.20;;;;;;;10.92;100.00;100657.44;5031272;28;20282;-73
2024/04/05 02:23:49;;;;;;;1.97;1.10;;;;;;;10.92;100.00;100663.47;5051008;28;20226;-72
2024/04/05 02:26:15;;;;;;;3.43;1.30;;;;;;;10.95;100.00;100657.53;5048077;28;20291;-72
2024/04/05 02:28:41;;;;;;;3.10;1.33;;;;;;;10.98;100.00;100653.47;5049039;28;20207;-72
2024/04/05 02:31:09;;;;;;;3.63;1.27;;;;;;;10.99;100.00;100657.66;5029043;28;20201;-72
2024/04/05 02:33:36;;;;;;;2.43;1.00;;;;;;;11.00;100.00;100661.84;5046615;28;20959;-72
2024/04/05 02:36:03;;;;;;;4.30;1.10;;;;;;;11.02;100.00;100654.38;5047427;28;20260;-72
2024/04/05 02:38:30;;;;;;;2.13;1.10;;;;;;;11.02;100.00;100660.41;5045672;28;20713;-72
2024/04/05 02:40:56;;;;;;;3.40;1.30;;;;;;;11.03;100.00;100672.53;5043664;28;20202;-72
2024/04/05 02:43:22;;;;;;;1.80;1.07;;;;;;;11.04;100.00;100665.38;5046882;28;20194;-71
2024/04/05 02:45:50;;;;;;;2.53;1.20;;;;;;;11.05;100.00;100665.06;5047232;28;20245;-72
2024/04/05 02:48:16;;;;;;;2.67;1.20;;;;;;;11.08;100.00;100668.94;5049420;28;20210;-71
2024/04/05 02:50:43;;;;;;;1.80;0.97;;;;;;;11.09;100.00;100676.53;5045815;28;20221;-71
2024/04/05 02:53:09;;;;;;;2.77;1.13;;;;;;;11.10;100.00;100672.00;5044441;28;20200;-72
2024/04/05 02:55:35;;;;;;;2.73;1.00;;;;;;;11.11;100.00;100678.84;5050633;28;20707;-72
2024/04/05 02:58:01;;;;;;;2.53;1.27;;;;;;;11.11;100.00;100682.25;5047788;28;20430;-72
2024/04/05 03:00:30;;;;;;;3.33;1.10;;;;;;;11.12;100.00;100673.22;5044991;28;20205;-71
2024/04/05 03:02:56;;;;;;;2.20;1.10;;;;;;;11.14;100.00;100681.59;5044730;28;20198;-72
2024/04/05 03:05:22;;;;;;;3.70;1.20;;;;;;;11.13;100.00;100674.00;5046745;28;20583;-72
2024/04/05 03:07:51;;;;;;;1.37;0.97;;;;;;;11.14;100.00;100686.13;5050663;28;20232;-72
2024/04/05 03:10:17;;;;;;;4.47;0.93;;;;;;;11.15;100.00;100677.88;5053194;28;20280;-72
2024/04/05 03:12:42;;;;;;;4.13;1.30;;;;;;;11.15;100.00;100675.22;5032322;28;20194;-71
2024/04/05 03:15:09;;;;;;;2.37;1.10;;;;;;;11.14;100.00;100681.59;5035149;28;20238;-72
2024/04/05 03:17:35;;;;;;;2.70;1.23;;;;;;;11.15;100.00;100688.44;5049152;28;20755;-72
2024/04/05 03:20:01;;;;;;;3.27;0.93;;;;;;;11.15;100.00;100685.00;5047146;28;20199;-72
2024/04/05 03:22:28;;;;;;;2.77;1.33;;;;;;;11.15;100.00;100690.31;5052066;28;20237;-71
2024/04/05 03:24:55;;;;;;;1.07;0.97;;;;;;;11.16;100.00;100697.13;5048313;28;20283;-72
2024/04/05 03:27:21;;;;;;;3.27;1.27;;;;;;;11.14;100.00;100689.53;5049482;28;20703;-72
2024/04/05 03:29:47;;;;;;;3.90;1.87;;;;;;;11.13;100.00;100695.16;5049975;28;20214;-72
2024/04/05 03:32:14;;;;;;;2.57;1.60;;;;;;;11.10;100.00;100703.72;5048268;28;20202;-72
2024/04/05 03:34:40;;;;;;;1.37;1.07;;;;;;;11.07;100.00;100699.09;5050827;28;20560;-72
2024/04/05 03:37:06;;;;;;;1.47;1.00;;;;;;;11.03;100.00;100701.59;5051486;28;20213;-72
2024/04/05 03:39:33;;;;;;;1.97;1.20;;;;;;;10.98;100.00;100695.75;5047389;28;20210;-71
2024/04/05 03:42:03;;;;;;;3.30;1.27;;;;;;;10.93;100.00;100704.63;5049401;28;20197;-71
2024/04/05 03:44:28;;;;;;;1.73;1.30;;;;;;;10.86;100.00;100712.31;5045495;28;20222;-72
2024/04/05 03:46:55;;;;;;;7.43;1.43;;;;;;;10.77;100.00;100703.69;5047757;28;20249;-72
2024/04/05 03:49:20;;;;;;;2.20;1.23;;;;;;;10.71;100.00;100701.59;5047531;28;20197;-72
2024/04/05 03:51:47;;;;;;;4.43;1.53;;;;;;;10.62;100.00;100714.06;5051793;28;20212;-72
2024/04/05 03:54:13;;;;;;;2.53;1.43;;;;;;;10.56;100.00;100710.09;5051981;28;20772;-72
2024/04/05 03:56:40;;;;;;;2.80;1.53;;;;;;;10.48;100.00;100702.97;5028654;28;20237;-72
2024/04/05 03:59:08;;;;;;;3.40;1.20;;;;;;;10.41;100.00;100708.00;5049887;28;20211;-72
2024/04/05 04:01:34;;;;;;;2.73;1.30;;;;;;;10.33;100.00;100708.81;5029521;28;20218;-72
2024/04/05 04:04:00;;;;;;;7.93;1.53;;;;;;;10.28;100.00;100716.94;5049895;28;20663;-72
2024/04/05 04:06:26;;;;;;;2.97;1.20;;;;;;;10.22;100.00;100721.63;5047702;28;20215;-72
2024/04/05 04:08:51;;;;;;;3.63;1.30;;;;;;;10.17;100.00;100721.03;5045608;28;20210;-72
2024/04/05 04:11:18;;;;;;;3.23;1.30;;;;;;;10.13;100.00;100735.94;5028612;28;20833;-71
2024/04/05 04:13:43;;;;;;;3.90;1.53;;;;;;;10.07;100.00;100729.31;5051947;28;20299;-72
2024/04/05 04:16:11;;;;;;;2.27;1.30;;;;;;;10.03;100.00;100733.63;5033112;28;20313;-72
2024/04/05 04:18:36;;;;;;;4.77;1.77;;;;;;;9.98;100.00;100739.09;5050060;28;20210;-72
2024/04/05 04:21:03;;;;;;;3.90;1.30;;;;;;;9.93;100.00;100745.31;5051781;28;20197;-72
2024/04/05 04:23:29;;;;;;;1.93;1.30;;;;;;;9.89;100.00;100748.91;5051984;28;20230;-72
2024/04/05 04:25:56;;;;;;;4.27;1.67;;;;;;;9.86;100.00;100749.53;5046904;28;20255;-72
2024/04/05 04:28:22;;;;;;;4.33;1.60;;;;;;;9.82;100.00;100753.88;5049258;28;20211;-72
2024/04/05 04:30:48;;;;;;;3.90;1.67;;;;;;;9.78;100.00;100761.66;5046081;28;20238;-72
2024/04/05 04:33:15;;;;;;;2.60;1.47;;;;;;;9.75;100.00;100754.41;5051882;28;20202;-72
2024/04/05 04:35:44;;;;;;;3.93;1.43;;;;;;;9.70;100.00;100754.56;5045701;28;20247;-71
2024/04/05 04:38:09;;;;;;;5.10;1.57;;;;;;;9.68;100.00;100755.97;5049021;28;20196;-72
2024/04/05 04:40:36;;;;;;;2.27;1.73;;;;;;;9.64;100.00;100761.06;5050370;28;20199;-72
2024/04/05 04:43:02;;;;;;;4.57;1.60;;;;;;;9.61;100.00;100768.84;5050603;28;20199;-71
2024/04/05 04:45:28;;;;;;;4.50;1.80;;;;;;;9.58;100.00;100764.22;5053054;28;20230;-73
2024/04/05 04:47:53;;;;;;;1.93;1.50;;;;;;;9.54;100.00;100764.06;5050672;28;20199;-72
2024/04/05 04:50:21;;;;;;;4.03;1.60;;;;;;;9.52;100.00;100768.84;5053843;28;20195;-71
2024/04/05 04:52:47;;;;;;;6.97;1.60;;;;;;;9.53;100.00;100767.00;5048146;28;20645;-72
2024/04/05 04:55:14;;;;;;;2.77;1.43;;;;;;;9.50;100.00;100776.31;5053498;28;20297;-72
2024/04/05 04:57:39;;;;;;;3.10;1.57;;;;;;;9.49;100.00;100776.63;5047178;28;20199;-73
2024/04/05 05:00:07;;;;;;;4.20;1.67;;;;;;;9.48;100.00;100785.63;5055644;28;20261;-72
2024/04/05 05:02:33;;;;;;;2.10;1.40;;;;;;;9.47;100.00;100792.75;5048989;28;20207;-72
2024/04/05 05:04:59;;;;;;;2.23;1.60;;;;;;;9.46;100.00;100790.41;5054491;28;20205;-72
2024/04/05 05:07:26;;;;;;;3.90;1.77;;;;;;;9.48;100.00;100790.91;5053201;28;20232;-71
2024/04/05 05:09:54;;;;;;;4.27;1.70;;;;;;;9.48;100.00;100793.53;5039671;28;20201;-72
2024/04/05 05:12:19;;;;;;;5.67;2.20;;;;;;;9.49;100.00;100789.81;5036598;28;20205;-72
2024/04/05 05:14:45;;;;;;;4.80;1.53;;;;;;;9.50;100.00;100797.41;5054485;28;20580;-72
2024/04/05 05:17:11;;;;;;;2.00;1.37;;;;;;;9.51;100.00;100795.53;5052530;28;20224;-71
2024/04/05 05:19:37;;;;;;;4.33;2.47;;;;;;;9.52;100.00;100797.84;5050755;28;20196;-72
2024/04/05 05:22:03;;;;;;;5.23;1.97;;;;;;;9.53;100.00;100785.47;5048318;28;20203;-72
2024/04/05 05:24:31;;;;;;;6.77;2.00;;;;;;;9.55;100.00;100796.44;5050792;28;20198;-72
2024/04/05 05:26:56;;;;;;;8.63;2.07;;;;;;;9.55;100.00;100788.53;5035280;28;20235;-72
2024/04/05 05:29:23;;;;;;;2.27;1.60;;;;;;;9.57;100.00;100792.41;5048992;28;20542;-72
2024/04/05 05:31:48;;;;;;;6.60;1.80;;;;;;;9.58;100.00;100790.56;5048887;28;20688;-72
2024/04/05 05:34:15;;;;;;;4.03;1.80;;;;;;;9.59;100.00;100787.63;5032995;28;20217;-71
2024/04/05 05:36:40;;;;;;;7.80;2.00;;;;;;;9.62;100.00;100792.25;5052675;28;20223;-72
2024/04/05 05:39:07;;;;;;;8.53;2.20;;;;;;;9.65;100.00;100794.28;5051350;28;20569;-71
2024/04/05 05:41:33;;;;;;;4.83;2.07;;;;;;;9.70;100.00;100799.38;5053973;28;20205;-72
2024/04/05 05:44:00;;;;;;;4.03;1.67;;;;;;;9.76;100.00;100797.34;5051819;28;20205;-72
2024/04/05 05:46:25;;;;;;;4.73;1.80;;;;;;;9.83;100.00;100801.03;5054345;28;20308;-72
2024/04/05 05:48:52;;;;;;;4.77;2.30;;;;;;;9.89;100.00;100802.41;5049077;28;20628;-71
2024/04/05 05:51:17;;;;;;;5.43;2.00;;;;;;;9.99;100.00;100809.25;5037267;28;20205;-72
2024/04/05 05:53:46;;;;;;;4.77;2.10;;;;;;;10.07;100.00;100803.19;5049762;28;20203;-70
2024/04/05 05:56:12;;;;;;;4.80;1.67;;;;;;;10.16;100.00;100799.44;5051639;28;20732;-72
2024/04/05 05:58:40;;;;;;;4.30;2.10;;;;;;;10.23;100.00;100804.97;5052719;28;20199;-72
2024/04/05 06:01:05;;;;;;;4.13;2.00;;;;;;;10.30;100.00;100804.50;5031756;28;20282;-72
2024/04/05 06:03:32;;;;;;;4.53;1.80;;;;;;;10.37;100.00;100810.81;5051657;28;20282;-72
2024/04/05 06:05:58;;;;;;;8.80;1.80;;;;;;;10.44;100.00;100811.09;5053426;28;20228;-72
2024/04/05 06:08:24;;;;;;;6.13;1.60;;;;;;;10.48;100.00;100811.22;5047158;28;20288;-73
2024/04/05 06:10:56;;;;;;;4.30;1.90;;;;;;;10.49;100.00;100807.47;5048480;28;20825;-72
2024/04/05 06:13:23;;;;;;;4.83;2.00;;;;;;;10.50;100.00;100801.91;5046725;28;20204;-73
2024/04/05 06:15:54;;;;;;;5.97;1.63;;;;;;;10.53;100.00;100803.13;5051147;28;20236;-73
2024/04/05 06:18:20;;;;;;;5.87;1.87;;;;;;;10.53;100.00;100806.56;5056467;28;20654;-73
2024/04/05 06:20:51;;;;;;;4.53;2.07;;;;;;;10.57;100.00;100807.44;5048002;28;20235;-73
2024/04/05 06:23:17;;;;;;;6.07;3.10;;;;;;;10.61;100.00;100812.88;5047653;28;20439;-73
2024/04/05 06:25:50;;;;;;;7.57;2.70;;;;;;;10.66;100.00;100818.72;5049074;28;20268;-72
2024/04/05 06:28:17;;;;;;;6.67;2.60;;;;;;;10.72;100.00;100820.09;5047738;28;20232;-72
2024/04/05 06:30:43;;;;;;;3.93;1.90;;;;;;;10.80;100.00;100826.41;5052419;28;20240;-73
2024/04/05 06:33:11;;;;;;;2.40;1.43;;;;;;;10.84;100.00;100827.31;5047061;28;20194;-73
2024/04/05 06:35:37;;;;;;;3.23;1.40;;;;;;;10.92;100.00;100837.09;5047553;28;20252;-73
2024/04/05 06:38:04;;;;;;;3.97;1.37;;;;;;;11.00;100.00;100828.31;5046090;28;20231;-73
2024/04/05 06:40:30;;;;;;;4.77;2.03;;;;;;;11.08;100.00;100835.41;5050773;28;20407;-73
2024/04/05 06:42:56;;;;;;;6.10;1.80;;;;;;;11.17;100.00;100838.75;5046724;28;20229;-73
2024/04/05 06:45:22;;;;;;;3.97;1.43;;;;;;;11.23;100.00;100840.88;5049824;28;20528;-73
2024/04/05 06:47:49;;;;;;;5.77;1.63;;;;;;;11.33;100.00;100840.50;5045907;28;20194;-72
2024/04/05 06:50:16;;;;;;;5.17;1.53;;;;;;;11.43;100.00;100839.34;5045470;28;20414;-72
2024/04/05 06:52:42;;;;;;;3.10;1.47;;;;;;;11.49;100.00;100841.44;5050346;28;20206;-72
2024/04/05 06:55:08;;;;;;;5.57;1.40;;;;;;;11.63;100.00;100843.84;5048923;28;20298;-73
2024/04/05 06:57:34;;;;;;;5.30;1.33;;;;;;;11.72;100.00;100847.97;5046452;28;20263;-73
2024/04/05 07:00:00;;;;;;;3.50;1.60;;;;;;;11.83;100.00;100850.97;5054568;28;20195;-72
2024/04/05 07:02:26;;;;;;;4.23;1.60;;;;;;;11.95;100.00;100862.34;5057417;28;20198;-72
2024/04/05 07:04:52;;;;;;;3.13;1.40;;;;;;;12.05;100.00;100858.50;5058304;28;20248;-73
2024/04/05 07:07:20;;;;;;;5.53;1.93;;;;;;;12.13;100.00;100865.59;5038367;28;20191;-72
2024/04/05 07:09:45;;;;;;;4.17;1.50;;;;;;;12.23;100.00;100862.53;5054521;28;20234;-73
2024/04/05 07:12:12;;;;;;;5.10;1.67;;;;;;;12.38;100.00;100865.28;5057541;28;20199;-73
2024/04/05 07:14:37;;;;;;;8.40;1.70;;;;;;;12.51;100.00;100864.19;5051215;28;20284;-73
2024/04/05 07:17:06;;;;;;;4.10;1.30;;;;;;;12.70;100.00;100866.28;5040815;28;20219;-73
2024/04/05 07:19:34;;;;;;;4.93;1.60;;;;;;;12.91;100.00;100862.44;5054321;28;20242;-73
2024/04/05 07:22:00;;;;;;;2.50;1.40;;;;;;;13.01;100.00;100866.53;5049512;28;20213;-72
2024/04/05 07:24:27;;;;;;;3.97;1.10;;;;;;;13.15;100.00;100861.63;5047153;28;20202;-72
2024/04/05 07:26:53;;;;;;;5.53;1.83;;;;;;;13.23;100.00;100858.84;5044848;28;20244;-73
2024/04/05 07:29:19;;;;;;;2.33;1.20;;;;;;;13.36;100.00;100870.19;5048639;28;20206;-72
2024/04/05 07:31:48;;;;;;;4.07;1.43;;;;;;;13.45;100.00;100870.84;5050938;28;20188;-72
2024/04/05 07:34:13;;;;;;;4.03;1.20;;;;;;;13.56;100.00;100871.91;5048465;28;20214;-72
2024/04/05 07:36:39;;;;;;;4.43;1.40;;;;;;;13.67;100.00;100875.63;5034246;28;20227;-72
2024/04/05 07:39:05;;;;;;;3.93;1.37;;;;;;;13.80;100.00;100877.09;5048711;28;20774;-72
2024/04/05 07:41:34;;;;;;;4.53;1.40;;;;;;;13.91;100.00;100881.56;5028028;28;20252;-73
2024/04/05 07:44:00;;;;;;;3.43;1.00;;;;;;;14.06;100.00;100882.69;5048449;28;20266;-72
2024/04/05 07:46:26;;;;;;;6.47;1.60;;;;;;;14.17;100.00;100883.75;5032879;28;20696;-72
2024/04/05 07:48:55;;;;;;;5.07;1.57;;;;;;;14.22;100.00;100884.31;5049370;28;20845;-73
2024/04/05 07:51:22;;;;;;;4.03;1.10;;;;;;;14.27;100.00;100891.22;5049718;28;20206;-73
2024/04/05 07:53:47;;;;;;;5.80;1.30;;;;;;;14.31;100.00;100898.19;5050368;28;20281;-73
2024/04/05 07:56:14;;;;;;;4.03;1.37;;;;;;;14.40;100.00;100895.38;5031819;28;20573;-73
2024/04/05 07:58:41;;;;;;;4.77;1.30;;;;;;;14.46;100.00;100884.16;5053117;28;20211;-72
2024/04/05 08:01:10;;;;;;;3.73;1.40;;;;;;;14.53;100.00;100888.84;5050548;28;20245;-72
2024/04/05 08:03:35;;;;;;;5.13;1.57;;;;;;;14.59;100.00;100898.13;5051399;28;20629;-72
2024/04/05 08:06:02;;;;;;;6.43;1.30;;;;;;;14.66;100.00;100891.09;5049865;28;20298;-72
2024/04/05 08:08:27;;;;;;;3.40;1.30;;;;;;;14.75;100.00;100894.31;5048006;28;20199;-72
2024/04/05 08:11:00;;;;;;;5.27;1.43;;;;;;;14.86;100.00;100902.53;5056932;28;20687;-72
2024/04/05 08:13:26;;;;;;;3.57;1.10;;;;;;;14.97;100.00;100898.22;5049754;28;20214;-72
2024/04/05 08:15:54;;;;;;;3.53;1.10;;;;;;;15.07;100.00;100893.13;5049544;28;20268;-73
2024/04/05 08:18:19;;;;;;;2.23;0.90;;;;;;;15.16;100.00;100890.31;5049620;28;20195;-72
2024/04/05 08:20:46;;;;;;;4.93;1.30;;;;;;;15.25;100.00;100893.50;5048314;28;20218;-72
2024/04/05 08:23:11;;;;;;;3.43;1.27;;;;;;;15.33;100.00;100896.03;5048367;28;20199;-73
2024/04/05 08:25:38;;;;;;;3.73;1.10;;;;;;;15.45;100.00;100895.09;5046480;28;20294;-73
2024/04/05 08:28:04;;;;;;;4.50;1.20;;;;;;;15.57;100.00;100889.66;5046493;28;20195;-73
2024/04/05 08:30:30;;;;;;;4.30;1.20;;;;;;;15.68;100.00;100898.63;5049059;28;20222;-73
2024/04/05 08:32:59;;;;;;;4.13;1.27;;;;;;;15.77;100.00;100897.28;5043055;28;20201;-72
2024/04/05 08:35:26;;;;;;;4.67;1.73;;;;;;;15.87;100.00;100898.59;5048261;28;20223;-72
2024/04/05 08:38:02;;;;;;;3.97;1.33;;;;;;;15.96;100.00;100901.81;5050467;28;20291;-73
2024/04/05 08:40:29;;;;;;;7.23;3.60;;;;;;;16.03;100.00;100896.59;5049169;28;20238;-72
2024/04/05 08:43:09;;;;;;;4.17;1.50;;;;;;;16.09;100.00;100895.19;5048147;28;20191;-72
2024/04/05 08:45:38;;;;;;;3.60;1.43;;;;;;;16.15;100.00;100896.44;5033884;28;20622;-72
2024/04/05 08:48:09;;;;;;;4.37;1.30;;;;;;;16.19;100.00;100898.03;5041409;28;20199;-73
2024/04/05 08:50:40;;;;;;;3.67;1.10;;;;;;;16.23;100.00;100898.88;5048994;28;20210;-72
2024/04/05 08:53:08;;;;;;;3.77;1.10;;;;;;;16.32;100.00;100895.97;5047300;28;20234;-73
2024/04/05 08:55:43;;;;;;;6.07;1.37;;;;;;;16.35;100.00;100908.59;5048747;28;20755;-70
2024/04/05 08:58:18;;;;;;;4.90;1.83;;;;;;;16.40;100.00;100911.75;5028050;28;20214;-71
2024/04/05 09:00:45;;;;;;;3.73;1.53;;;;;;;16.43;100.00;100907.59;5044616;28;20286;-70
2024/04/05 09:03:12;;;;;;;3.20;1.13;;;;;;;16.48;100.00;100909.97;5042991;28;20235;-72
2024/04/05 09:05:50;;;;;;;3.60;1.13;;;;;;;16.54;100.00;100914.66;5044954;28;20230;-72
2024/04/05 09:08:43;;;;;;;3.50;1.37;;;;;;;16.59;100.00;100905.56;5043966;28;20282;-72
2024/04/05 09:11:14;;;;;;;4.93;1.27;;;;;;;16.64;100.00;100910.59;5047334;28;20227;-73
2024/04/05 09:13:53;;;;;;;2.00;1.10;;;;;;;16.65;100.00;100898.81;5049164;28;20194;-73
2024/04/05 09:16:27;;;;;;;6.30;1.30;;;;;;;16.68;100.00;100898.09;5046196;28;20310;-72
2024/04/05 09:19:03;;;;;;;2.90;1.37;;;;;;;16.69;100.00;100903.09;5045804;28;20276;-71
2024/04/05 09:21:44;;;;;;;3.73;1.50;;;;;;;16.73;100.00;100893.25;5044634;28;20199;-71
2024/04/05 09:24:15;;;;;;;6.87;1.53;;;;;;;16.74;100.00;100886.00;5045400;28;20195;-71
2024/04/05 09:27:06;;;;;;;3.30;1.50;;;;;;;16.76;100.00;100887.19;5044229;28;20207;-71
2024/04/05 09:29:32;;;;;;;4.63;1.23;;;;;;;16.79;100.00;100891.81;5045108;28;20215;-71
2024/04/05 09:31:59;;;;;;;3.93;1.80;;;;;;;16.80;100.00;100909.34;5051045;28;20269;-71
2024/04/05 09:34:35;;;;;;;5.90;1.60;;;;;;;16.78;100.00;100903.63;5046576;28;20795;-71
2024/04/05 09:37:07;;;;;;;3.17;1.30;;;;;;;16.81;100.00;100907.47;5047678;28;20222;-71
2024/04/05 09:39:36;;;;;;;4.70;1.50;;;;;;;16.78;100.00;100911.63;5047503;28;20543;-71
2024/04/05 09:42:10;;;;;;;4.53;1.40;;;;;;;16.79;100.00;100901.69;5046553;28;20194;-71
2024/04/05 09:44:40;;;;;;;2.67;1.27;;;;;;;16.81;100.00;100905.53;5044031;28;20198;-71
2024/04/05 09:47:07;;;;;;;4.33;1.20;;;;;;;16.89;100.00;100909.09;5047334;28;20223;-70
2024/04/05 09:49:33;;;;;;;9.63;1.77;;;;;;;16.97;100.00;100898.16;5050397;28;20198;-71
2024/04/05 09:52:09;;;;;;;3.47;1.40;;;;;;;17.08;100.00;100904.41;5048246;28;20199;-72
2024/04/05 09:54:39;;;;;;;6.50;1.77;;;;;;;17.21;100.00;100911.06;5044699;28;20297;-71
2024/04/05 09:57:08;;;;;;;2.77;1.30;;;;;;;17.37;100.00;100910.88;5046458;28;20321;-71
2024/04/05 09:59:34;;;;;;;3.37;1.43;;;;;;;17.52;100.00;100909.97;5049825;28;20195;-71
2024/04/05 10:02:00;;;;;;;4.83;1.20;;;;;;;17.64;100.00;100905.16;5045451;28;20693;-71
2024/04/05 10:04:29;;;;;;;4.73;1.50;;;;;;;17.73;100.00;100896.84;5047339;28;20203;-71
2024/04/05 10:07:06;;;;;;;5.33;1.70;;;;;;;17.81;100.00;100893.88;5031224;28;20215;-70
2024/04/05 10:09:34;;;;;;;4.30;1.80;;;;;;;17.85;100.00;100889.34;5043476;28;20265;-71
2024/04/05 10:12:11;;;;;;;3.43;1.33;;;;;;;17.83;100.00;100885.50;5041475;28;20245;-71
2024/04/05 10:14:37;;;;;;;4.27;1.77;;;;;;;17.88;100.00;100883.28;5048128;28;20195;-70
2024/04/05 10:17:11;;;;;;;4.90;1.33;;;;;;;17.92;100.00;100880.66;5047560;28;20219;-71
2024/04/05 10:19:38;;;;;;;2.50;1.43;;;;;;;17.97;100.00;100885.66;5044892;28;20195;-71
2024/04/05 10:22:08;;;;;;;4.27;1.40;;;;;;;18.02;100.00;100877.31;5037695;28;20731;-71
2024/04/05 10:24:34;;;;;;;4.47;1.30;;;;;;;18.07;100.00;100879.66;5042708;28;20452;-71
2024/04/05 10:27:01;;;;;;;6.33;1.63;;;;;;;18.10;100.00;100885.03;5023945;28;20720;-71
2024/04/05 10:29:27;;;;;;;4.90;1.43;;;;;;;18.11;100.00;100875.88;5027221;28;20215;-71
2024/04/05 10:32:01;;;;;;;5.17;1.30;;;;;;;18.18;100.00;100867.16;5041026;28;20203;-70
2024/04/05 10:34:27;;;;;;;4.90;1.43;;;;;;;18.21;100.00;100864.50;5044085;28;20217;-71
2024/04/05 10:36:53;;;;;;;5.93;1.50;;;;;;;18.24;100.00;100865.66;5040330;28;20605;-70
2024/04/05 10:39:20;;;;;;;4.63;1.40;;;;;;;18.28;100.00;100872.59;5043398;28;20186;-71
2024/04/05 10:41:48;;;;;;;6.60;1.63;;;;;;;18.33;100.00;100871.50;5046609;28;20245;-71
2024/04/05 10:44:14;;;;;;;4.43;2.17;;;;;;;18.37;100.00;100867.72;5042852;28;20190;-71
2024/04/05 10:46:41;;;;;;;4.60;1.30;;;;;;;18.46;100.00;100872.75;5043846;28;20240;-71
2024/04/05 10:49:06;;;;;;;4.63;1.30;;;;;;;18.48;100.00;100870.50;5043538;28;20209;-71
2024/04/05 10:51:33;;;;;;;5.57;1.30;;;;;;;18.49;100.00;100867.44;5045958;28;20198;-71
2024/04/05 10:54:07;;;;;;;4.67;1.73;;;;;;;18.50;100.00;100868.97;5044688;28;20356;-71
2024/04/05 10:56:38;;;;;;;3.03;1.27;;;;;;;18.48;100.00;100868.56;5051540;28;20230;-70
2024/04/05 10:59:06;;;;;;;4.27;1.60;;;;;;;18.52;100.00;100861.34;5044091;28;20239;-71
2024/04/05 11:01:34;;;;;;;6.00;1.47;;;;;;;18.56;100.00;100864.03;5046272;28;21436;-70
2024/04/05 11:04:00;;;;;;;3.43;1.30;;;;;;;18.60;100.00;100859.50;5048718;28;20641;-71
2024/04/05 11:06:26;;;;;;;5.97;1.50;;;;;;;18.62;100.00;100862.56;5040914;28;20227;-71
2024/04/05 11:08:52;;;;;;;4.53;1.57;;;;;;;18.68;100.00;100853.06;5043017;28;20211;-71
2024/04/05 11:11:20;;;;;;;3.63;1.50;;;;;;;18.77;100.00;100864.19;5045622;28;20210;-70
2024/04/05 11:13:46;;;;;;;5.20;1.40;;;;;;;18.81;100.00;100848.91;5043828;28;20787;-71
2024/04/05 11:16:16;;;;;;;3.90;1.40;;;;;;;18.82;100.00;100848.56;5040365;28;20226;-71
2024/04/05 11:18:41;;;;;;;4.53;1.40;;;;;;;18.90;100.00;100852.03;5046324;28;20727;-71
2024/04/05 11:21:16;;;;;;;4.10;1.60;;;;;;;18.98;100.00;100853.59;5047837;28;20210;-71